createdAt,value
2022-10-25T00:01:47.268Z,100.00
2022-10-25T00:04:14.336Z,100.00
2022-10-25T00:06:40.970Z,100.00
2022-10-25T00:09:08.050Z,100.00
2022-10-25T00:11:34.942Z,100.00
2022-10-25T00:14:03.007Z,100.00
2022-10-25T00:16:31.314Z,100.00
2022-10-25T00:18:57.751Z,100.00
2022-10-25T00:21:24.391Z,100.00
2022-10-25T00:23:51.457Z,100.00
2022-10-25T00:26:18.237Z,100.00
2022-10-25T00:28:44.683Z,100.00
2022-10-25T00:31:12.472Z,100.00
2022-10-25T00:33:39.419Z,100.00
2022-10-25T00:36:05.895Z,100.00
2022-10-25T00:38:32.389Z,100.00
2022-10-25T00:40:59.144Z,100.00
2022-10-25T00:43:32.870Z,100.00
2022-10-25T00:48:28.046Z,100.00
2022-10-25T00:50:54.725Z,100.00
2022-10-25T00:53:28.049Z,100.00
2022-10-25T00:56:08.351Z,100.00
2022-10-25T00:58:37.377Z,100.00
2022-10-25T01:01:05.976Z,100.00
2022-10-25T01:03:34.295Z,100.00
2022-10-25T01:06:01.899Z,100.00
2022-10-25T01:08:28.440Z,100.00
2022-10-25T01:10:54.845Z,100.00
2022-10-25T01:13:21.339Z,100.00
2022-10-25T01:16:03.159Z,100.00
2022-10-25T01:18:38.805Z,99.78
2022-10-25T01:21:11.309Z,98.29
2022-10-25T01:23:43.791Z,97.42
2022-10-25T01:26:10.193Z,96.47
2022-10-25T01:28:36.591Z,97.10
2022-10-25T01:31:06.113Z,96.75
2022-10-25T01:33:39.537Z,98.81
2022-10-25T01:36:18.326Z,99.22
2022-10-25T01:38:50.553Z,98.73
2022-10-25T01:41:28.092Z,99.11
2022-10-25T01:44:07.759Z,97.63
2022-10-25T01:46:46.414Z,96.09
2022-10-25T01:49:16.457Z,95.64
2022-10-25T01:51:42.981Z,95.34
2022-10-25T01:54:23.094Z,95.30
2022-10-25T01:56:59.084Z,96.59
2022-10-25T01:59:40.101Z,98.20
2022-10-25T02:02:16.340Z,100.00
2022-10-25T02:04:51.651Z,99.87
2022-10-25T02:07:37.134Z,100.00
2022-10-25T02:10:07.331Z,100.00
2022-10-25T02:12:59.829Z,100.00
2022-10-25T02:15:34.902Z,100.00
2022-10-25T02:18:04.506Z,100.00
2022-10-25T02:20:33.597Z,100.00
2022-10-25T02:23:02.463Z,100.00
2022-10-25T02:25:32.300Z,100.00
2022-10-25T02:27:59.822Z,100.00
2022-10-25T02:30:26.914Z,100.00
2022-10-25T02:32:53.336Z,100.00
2022-10-25T02:35:19.934Z,100.00
2022-10-25T02:37:46.568Z,100.00
2022-10-25T02:40:13.474Z,100.00
2022-10-25T02:42:39.984Z,100.00
2022-10-25T02:45:07.090Z,100.00
2022-10-25T02:47:33.517Z,100.00
2022-10-25T02:50:00.122Z,100.00
2022-10-25T02:52:26.675Z,100.00
2022-10-25T02:54:53.111Z,100.00
2022-10-25T02:57:19.515Z,100.00
2022-10-25T02:59:45.969Z,100.00
2022-10-25T03:02:12.487Z,100.00
2022-10-25T03:04:38.908Z,100.00
2022-10-25T03:07:05.346Z,100.00
2022-10-25T03:09:31.750Z,100.00
2022-10-25T03:11:58.292Z,100.00
2022-10-25T03:14:25.472Z,100.00
2022-10-25T03:16:51.920Z,100.00
2022-10-25T03:19:18.361Z,100.00
2022-10-25T03:21:44.841Z,100.00
2022-10-25T03:24:11.257Z,100.00
2022-10-25T03:26:37.739Z,100.00
2022-10-25T03:29:04.227Z,100.00
2022-10-25T03:31:30.623Z,100.00
2022-10-25T03:33:57.041Z,100.00
2022-10-25T03:36:23.492Z,100.00
2022-10-25T03:38:49.895Z,100.00
2022-10-25T03:41:16.328Z,100.00
2022-10-25T03:43:42.741Z,100.00
2022-10-25T03:46:09.176Z,100.00
2022-10-25T03:48:36.330Z,100.00
2022-10-25T03:51:02.816Z,100.00
2022-10-25T03:53:29.302Z,100.00
2022-10-25T03:55:55.757Z,100.00
2022-10-25T03:58:22.201Z,100.00
2022-10-25T04:00:48.723Z,100.00
2022-10-25T04:03:15.348Z,100.00
2022-10-25T04:05:41.783Z,100.00
2022-10-25T04:08:08.226Z,100.00
2022-10-25T04:10:34.681Z,100.00
2022-10-25T04:13:01.208Z,100.00
2022-10-25T04:15:27.694Z,100.00
2022-10-25T04:17:54.774Z,100.00
2022-10-25T04:20:21.277Z,100.00
2022-10-25T04:22:56.884Z,100.00
2022-10-25T04:25:23.950Z,100.00
2022-10-25T04:27:50.517Z,100.00
2022-10-25T04:30:17.198Z,100.00
2022-10-25T04:32:43.779Z,100.00
2022-10-25T04:35:10.769Z,100.00
2022-10-25T04:37:37.209Z,100.00
2022-10-25T04:40:03.873Z,100.00
2022-10-25T04:42:32.683Z,100.00
2022-10-25T04:44:59.069Z,100.00
2022-10-25T04:47:25.493Z,100.00
2022-10-25T04:49:51.922Z,100.00
2022-10-25T04:52:19.221Z,100.00
2022-10-25T04:54:45.625Z,100.00
2022-10-25T04:57:12.017Z,100.00
2022-10-25T04:59:38.641Z,100.00
2022-10-25T05:02:05.549Z,100.00
2022-10-25T05:04:32.024Z,100.00
2022-10-25T05:06:58.420Z,100.00
2022-10-25T05:09:24.857Z,100.00
2022-10-25T05:11:51.268Z,100.00
2022-10-25T05:14:17.713Z,100.00
2022-10-25T05:16:44.133Z,99.80
2022-10-25T05:19:10.561Z,97.08
2022-10-25T05:21:37.038Z,100.00
2022-10-25T05:24:03.608Z,100.00
2022-10-25T05:26:30.921Z,100.00
2022-10-25T05:28:57.515Z,100.00
2022-10-25T05:31:25.215Z,100.00
2022-10-25T05:33:52.738Z,100.00
2022-10-25T05:36:19.559Z,100.00
2022-10-25T05:38:46.334Z,100.00
2022-10-25T05:41:14.001Z,100.00
2022-10-25T05:43:41.151Z,100.00
2022-10-25T05:46:08.752Z,100.00
2022-10-25T05:48:35.941Z,100.00
2022-10-25T05:51:28.638Z,100.00
2022-10-25T05:53:56.730Z,100.00
2022-10-25T05:56:24.403Z,100.00
2022-10-25T05:58:51.289Z,100.00
2022-10-25T06:01:18.765Z,100.00
2022-10-25T06:03:47.911Z,100.00
2022-10-25T06:06:14.901Z,100.00
2022-10-25T06:08:41.534Z,100.00
2022-10-25T06:11:09.238Z,100.00
2022-10-25T06:13:35.823Z,100.00
2022-10-25T06:16:06.417Z,100.00
2022-10-25T06:18:33.570Z,100.00
2022-10-25T06:21:03.880Z,100.00
2022-10-25T06:23:31.569Z,100.00
2022-10-25T06:26:01.983Z,100.00
2022-10-25T06:28:29.099Z,100.00
2022-10-25T06:31:00.358Z,100.00
2022-10-25T06:33:28.066Z,100.00
2022-10-25T06:35:55.686Z,100.00
2022-10-25T06:38:22.197Z,100.00
2022-10-25T06:40:48.606Z,100.00
2022-10-25T06:43:15.046Z,100.00
2022-10-25T06:45:41.815Z,100.00
2022-10-25T06:48:08.250Z,100.00
2022-10-25T06:50:34.907Z,100.00
2022-10-25T06:53:01.334Z,100.00
2022-10-25T06:55:27.772Z,100.00
2022-10-25T06:57:56.916Z,100.00
2022-10-25T07:00:23.462Z,100.00
2022-10-25T07:02:59.678Z,100.00
2022-10-25T07:05:26.861Z,100.00
2022-10-25T07:07:53.851Z,100.00
2022-10-25T07:10:20.263Z,100.00
2022-10-25T07:12:46.668Z,100.00
2022-10-25T07:15:13.231Z,100.00
2022-10-25T07:17:39.728Z,100.00
2022-10-25T07:20:06.525Z,100.00
2022-10-25T07:22:33.134Z,98.93
2022-10-25T07:24:59.719Z,96.06
2022-10-25T07:27:26.157Z,98.29
2022-10-25T07:29:52.598Z,98.14
2022-10-25T07:32:19.041Z,97.72
2022-10-25T07:34:45.455Z,96.85
2022-10-25T07:37:11.911Z,95.95
2022-10-25T07:39:38.339Z,96.16
2022-10-25T07:42:04.866Z,94.90
2022-10-25T07:44:31.291Z,89.92
2022-10-25T07:46:57.713Z,90.37
2022-10-25T07:49:24.178Z,89.61
2022-10-25T07:51:50.627Z,90.25
2022-10-25T07:54:17.065Z,89.29
2022-10-25T07:56:43.534Z,86.08
2022-10-25T07:59:10.045Z,84.37
2022-10-25T08:01:36.849Z,86.88
2022-10-25T08:04:03.567Z,87.71
2022-10-25T08:06:30.001Z,88.64
2022-10-25T08:08:56.408Z,88.46
2022-10-25T08:11:22.847Z,89.86
2022-10-25T08:13:50.291Z,89.54
2022-10-25T08:16:16.797Z,86.98
2022-10-25T08:18:44.083Z,87.07
2022-10-25T08:21:10.551Z,88.40
2022-10-25T08:23:37.035Z,86.91
2022-10-25T08:26:03.550Z,88.17
2022-10-25T08:28:33.130Z,89.34
2022-10-25T08:31:01.148Z,89.87
2022-10-25T08:33:28.469Z,90.44
2022-10-25T08:35:54.873Z,90.91
2022-10-25T08:38:21.344Z,90.12
2022-10-25T08:40:57.024Z,86.48
2022-10-25T08:43:23.481Z,86.11
2022-10-25T08:45:52.967Z,82.17
2022-10-25T08:48:22.370Z,82.38
2022-10-25T08:50:52.287Z,82.23
2022-10-25T08:53:22.292Z,79.14
2022-10-25T08:56:05.064Z,74.66
2022-10-25T08:58:37.344Z,72.38
2022-10-25T09:01:06.473Z,71.11
2022-10-25T09:03:33.231Z,68.86
2022-10-25T09:06:18.941Z,69.09
2022-10-25T09:09:23.024Z,71.12
2022-10-25T09:12:08.258Z,69.88
2022-10-25T09:14:50.735Z,67.17
2022-10-25T09:17:21.342Z,67.27
2022-10-25T09:19:56.975Z,65.25
2022-10-25T09:22:28.366Z,67.38
2022-10-25T09:24:59.836Z,64.47
2022-10-25T09:27:36.441Z,63.38
2022-10-25T09:30:07.435Z,66.74
2022-10-25T09:32:43.460Z,63.30
2022-10-25T09:35:39.178Z,59.42
2022-10-25T09:38:10.558Z,62.14
2022-10-25T09:40:47.591Z,59.02
2022-10-25T09:43:17.747Z,61.24
2022-10-25T09:45:46.809Z,57.77
2022-10-25T09:48:17.094Z,62.35
2022-10-25T09:50:53.555Z,58.79
2022-10-25T09:53:23.103Z,58.94
2022-10-25T09:55:50.564Z,55.81
2022-10-25T09:58:19.394Z,56.73
2022-10-25T10:00:45.949Z,58.10
2022-10-25T10:03:13.101Z,56.04
2022-10-25T10:05:42.051Z,60.35
2022-10-25T10:08:08.903Z,57.75
2022-10-25T10:10:35.650Z,57.17
2022-10-25T10:13:17.326Z,57.14
2022-10-25T10:15:49.640Z,56.34
2022-10-25T10:18:23.758Z,56.40
2022-10-25T10:21:04.780Z,58.90
2022-10-25T10:23:37.389Z,58.71
2022-10-25T10:26:12.023Z,59.63
2022-10-25T10:28:44.065Z,57.90
2022-10-25T10:31:10.535Z,58.69
2022-10-25T10:33:38.430Z,60.07
2022-10-25T10:36:21.607Z,58.60
2022-10-25T10:38:48.347Z,57.86
2022-10-25T10:41:20.717Z,57.45
2022-10-25T10:43:47.158Z,58.58
2022-10-25T10:46:15.267Z,58.52
2022-10-25T10:48:43.519Z,57.27
2022-10-25T10:51:39.064Z,57.37
2022-10-25T10:54:22.018Z,60.15
2022-10-25T10:56:59.577Z,61.06
2022-10-25T10:59:29.026Z,57.65
2022-10-25T11:01:56.616Z,57.19
2022-10-25T11:04:26.091Z,57.18
2022-10-25T11:06:52.742Z,55.51
2022-10-25T11:09:24.350Z,55.89
2022-10-25T11:12:09.543Z,54.45
2022-10-25T11:14:36.084Z,53.49
2022-10-25T11:17:22.809Z,53.88
2022-10-25T11:19:52.325Z,52.68
2022-10-25T11:22:18.746Z,52.50
2022-10-25T11:24:54.946Z,54.91
2022-10-25T11:27:39.567Z,52.83
2022-10-25T11:30:22.734Z,53.34
2022-10-25T11:33:05.176Z,52.57
2022-10-25T11:35:45.287Z,53.24
2022-10-25T11:38:21.418Z,53.32
2022-10-25T11:41:04.654Z,52.02
2022-10-25T11:43:43.113Z,51.41
2022-10-25T11:46:31.483Z,48.99
2022-10-25T11:49:13.178Z,50.39
2022-10-25T11:51:58.506Z,51.87
2022-10-25T11:54:44.926Z,51.56
2022-10-25T11:57:14.097Z,50.63
2022-10-25T11:59:58.863Z,51.59
2022-10-25T12:02:28.355Z,48.34
2022-10-25T12:04:57.927Z,53.29
2022-10-25T12:07:24.602Z,47.71
2022-10-25T12:09:51.048Z,51.57
2022-10-25T12:12:18.901Z,52.88
2022-10-25T12:14:48.567Z,50.00
2022-10-25T12:17:18.026Z,51.98
2022-10-25T12:19:46.055Z,52.10
2022-10-25T12:22:18.561Z,49.30
2022-10-25T12:24:47.878Z,50.74
2022-10-25T12:27:16.289Z,50.98
2022-10-25T12:29:46.298Z,51.30
2022-10-25T12:32:15.931Z,49.82
2022-10-25T12:34:50.882Z,50.36
2022-10-25T12:37:26.331Z,51.49
2022-10-25T12:39:52.929Z,47.31
2022-10-25T12:42:25.013Z,46.31
2022-10-25T12:44:58.486Z,46.49
2022-10-25T12:47:43.738Z,46.09
2022-10-25T12:50:10.211Z,44.41
2022-10-25T12:52:38.536Z,44.59
2022-10-25T12:55:21.584Z,44.28
2022-10-25T12:57:57.026Z,42.85
2022-10-25T13:00:24.081Z,41.70
2022-10-25T13:02:59.418Z,39.51
2022-10-25T13:05:25.837Z,40.18
2022-10-25T13:07:54.838Z,41.15
2022-10-25T13:10:22.441Z,41.43
2022-10-25T13:13:21.595Z,38.97
2022-10-25T13:15:50.225Z,40.30
2022-10-25T13:18:28.964Z,39.51
2022-10-25T13:20:55.509Z,41.42
2022-10-25T13:23:40.914Z,41.35
2022-10-25T13:26:08.434Z,40.94
2022-10-25T13:28:44.525Z,40.47
2022-10-25T13:31:28.933Z,41.32
2022-10-25T13:34:13.809Z,39.64
2022-10-25T13:36:46.015Z,40.78
2022-10-25T13:39:15.620Z,39.72
2022-10-25T13:41:44.518Z,43.17
2022-10-25T13:44:19.526Z,41.70
2022-10-25T13:46:46.422Z,42.03
2022-10-25T13:49:30.372Z,42.47
2022-10-25T13:51:58.111Z,42.01
2022-10-25T13:54:24.615Z,41.23
2022-10-25T13:56:53.066Z,41.25
2022-10-25T13:59:36.505Z,41.17
2022-10-25T14:02:17.341Z,40.57
2022-10-25T14:04:43.966Z,40.71
2022-10-25T14:07:29.298Z,40.20
2022-10-25T14:09:55.878Z,41.45
2022-10-25T14:12:22.930Z,43.44
2022-10-25T14:14:55.315Z,42.68
2022-10-25T14:17:30.917Z,42.15
2022-10-25T14:19:58.845Z,42.59
2022-10-25T14:22:32.700Z,43.62
2022-10-25T14:25:02.211Z,43.79
2022-10-25T14:27:36.312Z,45.36
2022-10-25T14:30:22.359Z,45.98
2022-10-25T14:32:54.187Z,46.16
2022-10-25T14:35:20.959Z,46.78
2022-10-25T14:37:47.527Z,47.73
2022-10-25T14:40:18.243Z,48.42
2022-10-25T14:42:44.860Z,48.75
2022-10-25T14:45:26.869Z,51.58
2022-10-25T14:47:53.371Z,50.29
2022-10-25T14:50:25.821Z,51.31
2022-10-25T14:52:52.469Z,52.86
2022-10-25T14:55:27.326Z,53.92
2022-10-25T14:57:54.075Z,53.26
2022-10-25T15:00:22.590Z,58.26
2022-10-25T15:02:53.232Z,58.32
2022-10-25T15:05:21.129Z,61.68
2022-10-25T15:07:49.097Z,64.64
2022-10-25T15:10:36.228Z,62.29
2022-10-25T15:13:04.554Z,67.12
2022-10-25T15:15:40.492Z,69.19
2022-10-25T15:18:19.826Z,69.13
2022-10-25T15:20:48.940Z,73.14
2022-10-25T15:23:16.991Z,72.63
2022-10-25T15:25:43.423Z,73.09
2022-10-25T15:28:14.282Z,73.94
2022-10-25T15:30:57.499Z,76.29
2022-10-25T15:33:28.294Z,79.01
2022-10-25T15:36:04.676Z,78.53
2022-10-25T15:38:54.412Z,79.06
2022-10-25T15:41:19.846Z,82.14
2022-10-25T15:43:46.251Z,81.74
2022-10-25T15:46:23.132Z,82.05
2022-10-25T15:48:49.645Z,81.92
2022-10-25T15:51:16.214Z,81.59
2022-10-25T15:53:42.687Z,81.53
2022-10-25T15:56:12.006Z,82.31
2022-10-25T15:58:38.430Z,82.13
2022-10-25T16:01:05.078Z,83.77
2022-10-25T16:03:31.632Z,85.24
2022-10-25T16:05:58.129Z,85.36
2022-10-25T16:08:24.778Z,86.13
2022-10-25T16:10:51.881Z,85.81
2022-10-25T16:13:25.696Z,85.56
2022-10-25T16:15:52.180Z,86.25
2022-10-25T16:18:18.715Z,86.64
2022-10-25T16:20:45.245Z,86.04
2022-10-25T16:23:11.668Z,86.51
2022-10-25T16:25:38.114Z,87.61
2022-10-25T16:28:04.565Z,88.11
2022-10-25T16:30:33.796Z,88.38
2022-10-25T16:33:00.214Z,89.08
2022-10-25T16:35:26.631Z,88.85
2022-10-25T16:37:53.704Z,88.59
2022-10-25T16:40:21.048Z,89.54
2022-10-25T16:42:48.218Z,89.27
2022-10-25T16:45:14.770Z,88.99
2022-10-25T16:47:41.491Z,88.27
2022-10-25T16:50:08.277Z,89.89
2022-10-25T16:52:34.720Z,90.06
2022-10-25T16:55:01.240Z,89.63
2022-10-25T16:57:27.662Z,90.52
2022-10-25T16:59:54.290Z,90.97
2022-10-25T17:02:22.033Z,92.19
2022-10-25T17:04:48.680Z,92.83
2022-10-25T17:07:15.488Z,92.34
2022-10-25T17:09:42.190Z,92.37
2022-10-25T17:12:09.405Z,92.98
2022-10-25T17:14:36.321Z,93.97
2022-10-25T17:17:03.414Z,93.15
2022-10-25T17:19:29.927Z,92.57
2022-10-25T17:21:56.584Z,93.12
2022-10-25T17:24:23.382Z,94.24
2022-10-25T17:26:49.980Z,94.29
2022-10-25T17:29:17.149Z,94.00
2022-10-25T17:31:44.154Z,93.88
2022-10-25T17:34:10.933Z,93.48
2022-10-25T17:36:38.186Z,94.50
2022-10-25T17:39:06.373Z,94.17
2022-10-25T17:41:32.855Z,93.54
2022-10-25T17:43:59.286Z,93.01
2022-10-25T17:46:27.602Z,92.87
2022-10-25T17:48:55.482Z,93.63
2022-10-25T17:51:23.336Z,93.21
2022-10-25T17:53:54.237Z,93.78
2022-10-25T17:56:21.865Z,93.85
2022-10-25T17:58:49.011Z,94.45
2022-10-25T18:01:17.419Z,94.99
2022-10-25T18:03:44.310Z,95.88
2022-10-25T18:06:12.873Z,96.19
2022-10-25T18:08:39.711Z,97.00
2022-10-25T18:11:09.790Z,97.62
2022-10-25T18:13:37.654Z,96.27
2022-10-25T18:18:36.338Z,96.72
2022-10-25T18:21:03.701Z,97.42
2022-10-25T18:23:30.121Z,96.65
2022-10-25T18:28:22.945Z,95.93
2022-10-25T18:30:49.398Z,96.52
2022-10-25T18:33:15.969Z,96.29
2022-10-25T18:35:42.424Z,95.69
2022-10-25T18:38:08.852Z,95.94
2022-10-25T18:40:35.901Z,95.83
2022-10-25T18:43:02.531Z,95.12
2022-10-25T18:45:28.991Z,95.63
2022-10-25T18:47:55.750Z,95.74
2022-10-25T18:50:22.815Z,95.61
2022-10-25T18:52:49.237Z,95.79
2022-10-25T18:55:15.748Z,95.87
2022-10-25T18:57:42.162Z,96.37
2022-10-25T19:00:09.054Z,95.82
2022-10-25T19:02:37.779Z,95.80
2022-10-25T19:05:04.748Z,96.01
2022-10-25T19:07:31.244Z,95.95
2022-10-25T19:09:57.664Z,95.99
2022-10-25T19:12:24.085Z,96.24
2022-10-25T19:14:50.483Z,96.28
2022-10-25T19:17:16.914Z,97.24
2022-10-25T19:19:43.365Z,97.49
2022-10-25T19:22:09.790Z,97.77
2022-10-25T19:24:38.218Z,98.11
2022-10-25T19:27:04.669Z,99.79
2022-10-25T19:29:31.108Z,100.00
2022-10-25T19:31:57.929Z,100.00
2022-10-25T19:34:24.337Z,100.00
2022-10-25T19:36:51.952Z,100.00
2022-10-25T19:39:18.441Z,100.00
2022-10-25T19:41:44.859Z,99.25
2022-10-25T19:44:11.330Z,99.29
2022-10-25T19:46:37.761Z,98.92
2022-10-25T19:49:05.763Z,99.57
2022-10-25T19:51:32.725Z,99.23
2022-10-25T19:53:59.190Z,99.65
2022-10-25T19:56:25.605Z,99.00
2022-10-25T19:58:52.095Z,98.92
2022-10-25T20:01:19.823Z,98.76
2022-10-25T20:03:48.537Z,99.05
2022-10-25T20:06:18.737Z,99.43
2022-10-25T20:08:48.574Z,99.20
2022-10-25T20:11:16.392Z,100.00
2022-10-25T20:13:42.869Z,100.00
2022-10-25T20:16:09.734Z,100.00
2022-10-25T20:18:37.346Z,100.00
2022-10-25T20:21:07.305Z,100.00
2022-10-25T20:23:34.263Z,100.00
2022-10-25T20:26:09.486Z,100.00
2022-10-25T20:28:35.923Z,100.00
2022-10-25T20:31:03.309Z,100.00
2022-10-25T20:33:29.949Z,100.00
2022-10-25T20:36:00.467Z,100.00
2022-10-25T20:38:27.058Z,100.00
2022-10-25T20:40:53.498Z,100.00
2022-10-25T20:43:20.101Z,100.00
2022-10-25T20:45:48.133Z,100.00
2022-10-25T20:48:17.298Z,100.00
2022-10-25T20:50:49.438Z,100.00
2022-10-25T20:53:16.577Z,100.00
2022-10-25T20:55:44.746Z,100.00
2022-10-25T20:58:11.206Z,100.00
2022-10-25T21:00:37.739Z,100.00
2022-10-25T21:03:04.147Z,100.00
2022-10-25T21:05:30.612Z,100.00
2022-10-25T21:07:57.059Z,100.00
2022-10-25T21:10:23.550Z,100.00
2022-10-25T21:12:49.980Z,100.00
2022-10-25T21:15:16.440Z,100.00
2022-10-25T21:17:48.112Z,100.00
2022-10-25T21:20:14.720Z,100.00
2022-10-25T21:22:42.467Z,100.00
2022-10-25T21:25:09.312Z,100.00
2022-10-25T21:27:35.730Z,100.00
2022-10-25T21:30:02.169Z,100.00
2022-10-25T21:32:29.288Z,100.00
2022-10-25T21:34:55.812Z,100.00
2022-10-25T21:37:22.277Z,100.00
2022-10-25T21:39:48.685Z,100.00
2022-10-25T21:42:15.173Z,100.00
2022-10-25T21:44:41.600Z,100.00
2022-10-25T21:47:08.035Z,100.00
2022-10-25T21:49:34.564Z,100.00
2022-10-25T21:52:01.049Z,100.00
2022-10-25T21:54:28.107Z,100.00
2022-10-25T21:56:54.933Z,100.00
2022-10-25T21:59:22.057Z,100.00
2022-10-25T22:01:48.901Z,100.00
2022-10-25T22:04:16.049Z,100.00
2022-10-25T22:06:42.482Z,100.00
2022-10-25T22:09:08.952Z,100.00
2022-10-25T22:11:37.070Z,100.00
2022-10-25T22:14:04.962Z,100.00
2022-10-25T22:16:31.923Z,100.00
2022-10-25T22:19:05.640Z,100.00
2022-10-25T22:21:33.657Z,100.00
2022-10-25T22:24:00.160Z,100.00
2022-10-25T22:26:26.789Z,100.00
2022-10-25T22:28:54.200Z,100.00
2022-10-25T22:31:22.876Z,100.00
2022-10-25T22:33:57.203Z,100.00
2022-10-25T22:36:24.832Z,100.00
2022-10-25T22:38:51.308Z,100.00
2022-10-25T22:41:18.851Z,100.00
2022-10-25T22:43:45.969Z,100.00
2022-10-25T22:46:14.094Z,100.00
2022-10-25T22:48:41.616Z,100.00
2022-10-25T22:51:08.848Z,100.00
2022-10-25T22:53:35.984Z,100.00
2022-10-25T22:56:04.170Z,100.00
2022-10-25T22:58:34.737Z,100.00
2022-10-25T23:01:05.694Z,100.00
2022-10-25T23:03:33.460Z,100.00
2022-10-25T23:06:00.673Z,100.00
2022-10-25T23:08:27.764Z,100.00
2022-10-25T23:11:01.817Z,100.00
2022-10-25T23:13:31.737Z,100.00
2022-10-25T23:15:58.298Z,100.00
2022-10-25T23:18:25.054Z,100.00
2022-10-25T23:20:52.301Z,100.00
2022-10-25T23:23:19.110Z,100.00
2022-10-25T23:25:45.814Z,100.00
2022-10-25T23:28:12.634Z,100.00
2022-10-25T23:30:39.711Z,100.00
2022-10-25T23:33:06.558Z,100.00
2022-10-25T23:35:33.823Z,100.00
2022-10-25T23:38:00.854Z,100.00
2022-10-25T23:40:28.331Z,100.00
2022-10-25T23:42:54.893Z,99.84
2022-10-25T23:45:21.301Z,100.00
2022-10-25T23:47:48.128Z,100.00
2022-10-25T23:50:15.122Z,100.00
2022-10-25T23:52:41.524Z,100.00
2022-10-25T23:55:07.981Z,100.00
2022-10-25T23:57:34.386Z,100.00
